Time;durP1;ratioP1;P1;durP2;ratioP2;P2;SDS_P1;SDS_P2;PMS_P1;PMS_P2;Temp;Humidity;BMP_temperature;BMP_pressure;BME280_temperature;BME280_humidity;BME280_pressure;Samples;Min_cycle;Max_cycle;Signal;HPM_P1;HPM_P2
2024/03/08 00:00:09;;;;;;;48.45;25.33;;;;;;;;;;5023998;28;20521;-92
2024/03/08 00:02:37;;;;;;;50.80;26.85;;;;;;;;;;5015256;28;20085;-91
2024/03/08 00:05:05;;;;;;;49.63;27.52;;;;;;;;;;5023682;28;20435;-92
2024/03/08 00:07:32;;;;;;;49.22;25.17;;;;;;;;;;5023035;28;20046;-91
2024/03/08 00:10:00;;;;;;;51.17;26.70;;;;;;;;;;5020064;28;20568;-91
2024/03/08 00:12:27;;;;;;;45.10;27.13;;;;;;;;;;5027328;28;20136;-92
2024/03/08 00:14:54;;;;;;;49.00;27.08;;;;;;;;;;5020252;28;20053;-91
2024/03/08 00:17:25;;;;;;;45.38;26.02;;;;;;;;;;5019751;28;20551;-91
2024/03/08 00:19:52;;;;;;;50.53;27.33;;;;;;;;;;5031032;28;20458;-91
2024/03/08 00:22:21;;;;;;;50.55;25.98;;;;;;;;;;5015506;28;20053;-91
2024/03/08 00:24:52;;;;;;;49.80;25.77;;;;;;;;;;5016171;28;20104;-91
2024/03/08 00:27:20;;;;;;;48.72;26.05;;;;;;;;;;5031478;28;20060;-91
2024/03/08 00:29:48;;;;;;;48.03;26.05;;;;;;;;;;5020796;28;20464;-91
2024/03/08 00:32:17;;;;;;;50.05;26.90;;;;;;;;;;5019346;28;20522;-91
2024/03/08 00:34:44;;;;;;;49.92;27.35;;;;;;;;;;5021857;28;20475;-91
2024/03/08 00:37:11;;;;;;;55.75;26.50;;;;;;;;;;5016961;28;20045;-91
2024/03/08 00:39:39;;;;;;;51.50;25.38;;;;;;;;;;5014648;28;20100;-91
2024/03/08 00:42:06;;;;;;;52.03;27.95;;;;;;;;;;5019541;28;20054;-91
2024/03/08 00:44:34;;;;;;;48.33;26.85;;;;;;;;;;5019666;28;20514;-91
2024/03/08 00:47:02;;;;;;;52.85;27.80;;;;;;;;;;5028739;28;20049;-91
2024/03/08 00:49:29;;;;;;;47.75;26.60;;;;;;;;;;5028979;28;20064;-91
2024/03/08 00:51:56;;;;;;;46.83;26.70;;;;;;;;;;5021104;28;20054;-91
2024/03/08 00:54:24;;;;;;;49.25;24.95;;;;;;;;;;5019046;28;20061;-91
2024/03/08 00:56:52;;;;;;;50.63;26.05;;;;;;;;;;5021602;28;20128;-91
2024/03/08 00:59:20;;;;;;;50.00;26.73;;;;;;;;;;5022044;28;20136;-91
2024/03/08 01:01:47;;;;;;;47.22;25.45;;;;;;;;;;5021694;28;20054;-92
2024/03/08 01:04:14;;;;;;;51.15;25.65;;;;;;;;;;5007288;28;20057;-91
2024/03/08 01:06:45;;;;;;;53.63;27.35;;;;;;;;;;5028950;28;20108;-91
2024/03/08 01:09:14;;;;;;;51.33;27.13;;;;;;;;;;5018803;28;20078;-91
2024/03/08 01:11:41;;;;;;;53.75;27.92;;;;;;;;;;5026570;28;20057;-91
2024/03/08 01:14:09;;;;;;;55.63;27.70;;;;;;;;;;5018777;28;20050;-90
2024/03/08 01:16:36;;;;;;;50.80;27.83;;;;;;;;;;5019311;28;20089;-91
2024/03/08 01:19:03;;;;;;;55.40;28.40;;;;;;;;;;5022180;28;20065;-91
2024/03/08 01:21:31;;;;;;;49.78;26.27;;;;;;;;;;5021801;28;20054;-91
2024/03/08 01:23:58;;;;;;;49.40;26.42;;;;;;;;;;5010461;28;20046;-91
2024/03/08 01:26:25;;;;;;;45.88;24.92;;;;;;;;;;5018681;28;20077;-92
2024/03/08 01:28:53;;;;;;;54.00;26.77;;;;;;;;;;5021559;28;20049;-92
2024/03/08 01:31:20;;;;;;;56.22;27.35;;;;;;;;;;5021982;28;20054;-91
2024/03/08 01:33:50;;;;;;;56.03;27.48;;;;;;;;;;5019445;28;20147;-91
2024/03/08 01:36:19;;;;;;;47.58;26.75;;;;;;;;;;5016833;28;20050;-91
2024/03/08 01:38:46;;;;;;;51.38;27.00;;;;;;;;;;5019583;28;20073;-91
2024/03/08 01:41:16;;;;;;;55.42;26.83;;;;;;;;;;5002832;28;20050;-91
2024/03/08 01:43:43;;;;;;;51.85;27.60;;;;;;;;;;5004777;28;20073;-92
2024/03/08 01:46:12;;;;;;;51.40;26.55;;;;;;;;;;5021755;28;20046;-91
2024/03/08 01:48:40;;;;;;;54.40;26.23;;;;;;;;;;5020201;28;20050;-91
2024/03/08 01:51:08;;;;;;;50.90;25.92;;;;;;;;;;5017958;28;20499;-91
2024/03/08 01:53:36;;;;;;;47.13;25.63;;;;;;;;;;5018667;28;20586;-91
2024/03/08 01:56:04;;;;;;;48.13;26.58;;;;;;;;;;5030132;28;20491;-91
2024/03/08 01:58:32;;;;;;;52.42;27.27;;;;;;;;;;5006630;28;20046;-92
2024/03/08 02:01:00;;;;;;;50.83;27.80;;;;;;;;;;5021087;28;20060;-91
2024/03/08 02:03:28;;;;;;;55.85;29.25;;;;;;;;;;5034833;28;20072;-92
2024/03/08 02:05:55;;;;;;;55.17;27.58;;;;;;;;;;5018393;28;20046;-91
2024/03/08 02:08:22;;;;;;;54.40;27.40;;;;;;;;;;5017844;28;20073;-91
2024/03/08 02:10:50;;;;;;;51.17;27.30;;;;;;;;;;5020210;28;20054;-91
2024/03/08 02:13:18;;;;;;;49.45;26.05;;;;;;;;;;5020851;28;20103;-92
2024/03/08 02:15:55;;;;;;;56.85;28.77;;;;;;;;;;5003596;28;20062;-92
2024/03/08 02:18:23;;;;;;;52.50;27.17;;;;;;;;;;5002040;28;20079;-91
2024/03/08 02:20:57;;;;;;;56.22;28.55;;;;;;;;;;5020581;28;20046;-92
2024/03/08 02:23:25;;;;;;;53.30;28.25;;;;;;;;;;5021290;28;20089;-91
2024/03/08 02:25:53;;;;;;;51.80;27.35;;;;;;;;;;5018506;28;20058;-92
2024/03/08 02:28:20;;;;;;;57.08;28.65;;;;;;;;;;5018084;28;20082;-92
2024/03/08 02:30:48;;;;;;;53.70;28.95;;;;;;;;;;5019970;28;20110;-92
2024/03/08 02:33:19;;;;;;;56.33;28.58;;;;;;;;;;5021259;28;20500;-92
2024/03/08 02:35:47;;;;;;;50.53;26.58;;;;;;;;;;5019147;28;20056;-92
2024/03/08 02:38:19;;;;;;;50.72;26.40;;;;;;;;;;5004059;28;20477;-92
2024/03/08 02:40:47;;;;;;;53.88;26.20;;;;;;;;;;5018416;28;20488;-93
2024/03/08 02:43:15;;;;;;;52.00;27.17;;;;;;;;;;5023170;28;20084;-93
2024/03/08 02:45:44;;;;;;;49.85;25.98;;;;;;;;;;5019189;28;20046;-93
2024/03/08 02:48:11;;;;;;;52.40;26.35;;;;;;;;;;4989848;28;20050;-93
2024/03/08 02:50:45;;;;;;;53.08;26.90;;;;;;;;;;5010581;28;20050;-92
2024/03/08 02:53:13;;;;;;;53.67;27.73;;;;;;;;;;5017741;28;20536;-92
2024/03/08 02:55:41;;;;;;;65.13;28.33;;;;;;;;;;5018810;28;20050;-92
2024/03/08 02:58:13;;;;;;;53.58;27.52;;;;;;;;;;5005517;28;20125;-92
2024/03/08 03:00:41;;;;;;;57.50;28.90;;;;;;;;;;5019119;28;20065;-92
2024/03/08 03:03:08;;;;;;;56.05;28.75;;;;;;;;;;5001953;28;20287;-92
2024/03/08 03:05:36;;;;;;;55.75;28.20;;;;;;;;;;5026374;28;20109;-92
2024/03/08 03:08:08;;;;;;;55.78;28.48;;;;;;;;;;5001221;28;20085;-93
2024/03/08 03:10:37;;;;;;;60.47;28.85;;;;;;;;;;5018906;28;20054;-93
2024/03/08 03:13:04;;;;;;;55.00;27.95;;;;;;;;;;5007524;28;20046;-92
2024/03/08 03:15:33;;;;;;;51.08;26.17;;;;;;;;;;5024763;28;20044;-89
2024/03/08 03:18:02;;;;;;;53.85;26.75;;;;;;;;;;5011815;28;20141;-93
2024/03/08 03:20:32;;;;;;;55.85;27.52;;;;;;;;;;5025366;28;20136;-93
2024/03/08 03:23:03;;;;;;;56.15;28.83;;;;;;;;;;5008718;28;20105;-93
2024/03/08 03:25:35;;;;;;;60.45;30.48;;;;;;;;;;5028999;28;20085;-93
2024/03/08 03:28:04;;;;;;;52.67;27.55;;;;;;;;;;5016945;28;20112;-93
2024/03/08 03:30:34;;;;;;;51.33;26.65;;;;;;;;;;5024344;28;20084;-93
2024/03/08 03:33:06;;;;;;;56.35;28.05;;;;;;;;;;5023913;28;20060;-94
2024/03/08 03:35:35;;;;;;;60.63;27.85;;;;;;;;;;5008731;28;20104;-93
2024/03/08 03:40:32;;;;;;;48.53;25.98;;;;;;;;;;5005250;28;20050;-93
2024/03/08 03:42:59;;;;;;;53.83;26.42;;;;;;;;;;5008411;28;20478;-93
2024/03/08 03:45:26;;;;;;;54.08;27.27;;;;;;;;;;5032799;28;20082;-92
2024/03/08 03:47:54;;;;;;;59.30;26.80;;;;;;;;;;5021008;28;20042;-93
2024/03/08 03:50:25;;;;;;;57.53;26.65;;;;;;;;;;5020682;28;20085;-93
2024/03/08 03:52:52;;;;;;;56.17;27.67;;;;;;;;;;5022809;28;20116;-92
2024/03/08 03:55:21;;;;;;;53.10;26.98;;;;;;;;;;5023740;28;20560;-93
2024/03/08 03:57:49;;;;;;;70.03;35.47;;;;;;;;;;5029812;28;20453;-93
2024/03/08 04:00:16;;;;;;;66.30;31.50;;;;;;;;;;5020371;28;20509;-94
2024/03/08 04:02:44;;;;;;;67.65;33.38;;;;;;;;;;5022122;28;20064;-93
2024/03/08 04:05:12;;;;;;;56.47;28.15;;;;;;;;;;5018206;28;20117;-94
2024/03/08 04:07:39;;;;;;;57.97;29.90;;;;;;;;;;5021206;28;20056;-92
2024/03/08 04:10:08;;;;;;;55.80;28.33;;;;;;;;;;5023425;28;20061;-93
2024/03/08 04:12:35;;;;;;;54.97;27.38;;;;;;;;;;5023075;28;20057;-93
2024/03/08 04:15:03;;;;;;;51.85;26.52;;;;;;;;;;5021363;28;20482;-94
2024/03/08 04:17:31;;;;;;;54.60;26.83;;;;;;;;;;5031513;28;20449;-93
2024/03/08 04:19:58;;;;;;;54.45;27.10;;;;;;;;;;5015497;28;20569;-94
2024/03/08 04:22:28;;;;;;;49.50;26.08;;;;;;;;;;5015949;28;20050;-92
2024/03/08 04:24:55;;;;;;;54.58;27.38;;;;;;;;;;5008962;28;20100;-93
2024/03/08 04:27:23;;;;;;;49.22;26.08;;;;;;;;;;5019572;28;20081;-93
2024/03/08 04:29:51;;;;;;;52.65;26.15;;;;;;;;;;5043340;28;20054;-93
2024/03/08 04:32:18;;;;;;;51.03;26.15;;;;;;;;;;5029424;28;20054;-92
2024/03/08 04:34:46;;;;;;;50.00;25.48;;;;;;;;;;5022622;28;20053;-93
2024/03/08 04:37:14;;;;;;;48.20;24.42;;;;;;;;;;5024561;28;20454;-93
2024/03/08 04:39:41;;;;;;;46.72;24.95;;;;;;;;;;5020932;28;20562;-93
2024/03/08 04:42:10;;;;;;;51.47;25.90;;;;;;;;;;5021702;28;20054;-93
2024/03/08 04:44:38;;;;;;;52.03;25.45;;;;;;;;;;5022124;28;20137;-93
2024/03/08 04:47:06;;;;;;;47.83;24.33;;;;;;;;;;5019567;28;20061;-93
2024/03/08 04:49:37;;;;;;;53.50;26.50;;;;;;;;;;5020009;28;20053;-93
2024/03/08 04:52:05;;;;;;;47.53;25.70;;;;;;;;;;5019957;28;20761;-92
2024/03/08 04:54:32;;;;;;;51.50;26.48;;;;;;;;;;5019906;28;20415;-93
2024/03/08 04:57:00;;;;;;;48.35;25.05;;;;;;;;;;5022592;28;20053;-93
2024/03/08 04:59:31;;;;;;;48.67;24.80;;;;;;;;;;5014414;28;20121;-93
2024/03/08 05:01:59;;;;;;;47.22;25.20;;;;;;;;;;5002874;28;20137;-93
2024/03/08 05:04:27;;;;;;;52.47;27.23;;;;;;;;;;5019561;28;20050;-93
2024/03/08 05:06:55;;;;;;;52.40;27.00;;;;;;;;;;5022310;28;20085;-93
2024/03/08 05:09:23;;;;;;;47.70;25.23;;;;;;;;;;5007231;28;20050;-93
2024/03/08 05:11:51;;;;;;;55.28;26.90;;;;;;;;;;5021298;28;20074;-93
2024/03/08 05:14:20;;;;;;;57.35;27.38;;;;;;;;;;5022920;28;20054;-94
2024/03/08 05:16:48;;;;;;;53.05;26.42;;;;;;;;;;5020774;28;20052;-93
2024/03/08 05:19:17;;;;;;;53.70;27.48;;;;;;;;;;5025249;28;20041;-93
2024/03/08 05:21:44;;;;;;;52.00;25.77;;;;;;;;;;5022205;28;20387;-93
2024/03/08 05:24:13;;;;;;;55.03;27.85;;;;;;;;;;5019347;28;20546;-93
2024/03/08 05:26:41;;;;;;;57.00;26.50;;;;;;;;;;5028698;28;20057;-94
2024/03/08 05:29:09;;;;;;;52.97;25.80;;;;;;;;;;5023010;28;20054;-93
2024/03/08 05:31:46;;;;;;;53.92;26.90;;;;;;;;;;5021522;28;20042;-93
2024/03/08 05:34:14;;;;;;;46.63;25.48;;;;;;;;;;5019439;28;20050;-92
2024/03/08 05:36:46;;;;;;;54.90;26.08;;;;;;;;;;5027416;28;20049;-93
2024/03/08 05:39:14;;;;;;;52.03;26.95;;;;;;;;;;5018738;28;20454;-93
2024/03/08 05:41:45;;;;;;;61.03;27.73;;;;;;;;;;5038736;28;20042;-90
2024/03/08 05:44:13;;;;;;;53.20;27.38;;;;;;;;;;5026136;28;20097;-94
2024/03/08 05:46:42;;;;;;;51.83;25.48;;;;;;;;;;5025642;28;20054;-93
2024/03/08 05:49:11;;;;;;;54.75;25.92;;;;;;;;;;5032188;28;20514;-94
2024/03/08 05:51:40;;;;;;;56.15;26.77;;;;;;;;;;5028949;28;20065;-95
2024/03/08 05:54:24;;;;;;;75.18;37.10;;;;;;;;;;5032928;28;20060;-94
2024/03/08 05:56:54;;;;;;;75.60;37.50;;;;;;;;;;5024898;28;20049;-94
2024/03/08 05:59:23;;;;;;;61.22;31.50;;;;;;;;;;5026300;28;20069;-94
2024/03/08 06:02:24;;;;;;;63.83;33.38;;;;;;;;;;5002244;28;20092;-94
2024/03/08 06:04:54;;;;;;;62.72;30.73;;;;;;;;;;5034987;28;20054;-95
2024/03/08 06:07:24;;;;;;;56.10;27.60;;;;;;;;;;5020595;28;20050;-93
2024/03/08 06:09:54;;;;;;;68.75;36.45;;;;;;;;;;5036571;28;20064;-94
2024/03/08 06:12:41;;;;;;;56.58;29.70;;;;;;;;;;5029072;23;20054;-80
2024/03/08 06:15:09;;;;;;;57.22;29.92;;;;;;;;;;5006491;28;20050;-80
2024/03/08 06:17:37;;;;;;;56.30;29.48;;;;;;;;;;5006098;28;20070;-80
2024/03/08 06:20:10;;;;;;;57.97;29.67;;;;;;;;;;5007806;28;20054;-80
2024/03/08 06:22:40;;;;;;;57.70;28.50;;;;;;;;;;5007780;28;20077;-79
2024/03/08 06:25:15;;;;;;;61.10;29.70;;;;;;;;;;4988434;28;20054;-81
2024/03/08 06:27:43;;;;;;;62.30;31.40;;;;;;;;;;4995164;28;20429;-80
2024/03/08 06:30:10;;;;;;;60.47;30.48;;;;;;;;;;5004477;28;20069;-79
2024/03/08 06:32:38;;;;;;;64.75;31.48;;;;;;;;;;4988268;28;20046;-79
2024/03/08 06:35:06;;;;;;;61.55;29.92;;;;;;;;;;5006593;28;20076;-79
2024/03/08 06:37:33;;;;;;;64.07;31.85;;;;;;;;;;5006329;28;20049;-79
2024/03/08 06:40:01;;;;;;;60.97;30.70;;;;;;;;;;5003306;28;20054;-80
2024/03/08 06:42:29;;;;;;;69.07;31.63;;;;;;;;;;5003137;28;20054;-80
2024/03/08 06:45:03;;;;;;;67.65;33.58;;;;;;;;;;4995049;28;20057;-79
2024/03/08 06:47:31;;;;;;;70.13;35.10;;;;;;;;;;5002989;28;20054;-80
2024/03/08 06:49:59;;;;;;;59.13;30.60;;;;;;;;;;4995584;28;20050;-80
2024/03/08 06:52:26;;;;;;;55.28;29.48;;;;;;;;;;5003032;28;20077;-80
2024/03/08 06:54:53;;;;;;;62.75;31.40;;;;;;;;;;5007504;28;20076;-81
2024/03/08 06:57:21;;;;;;;58.85;30.08;;;;;;;;;;5008088;28;20050;-80
2024/03/08 06:59:49;;;;;;;63.60;31.00;;;;;;;;;;5001671;28;20050;-80
2024/03/08 07:02:16;;;;;;;62.13;30.38;;;;;;;;;;5010306;28;20054;-81
2024/03/08 07:04:44;;;;;;;68.43;31.27;;;;;;;;;;5008140;28;20072;-79
2024/03/08 07:07:11;;;;;;;65.28;31.05;;;;;;;;;;5006893;28;20058;-80
2024/03/08 07:09:38;;;;;;;64.28;30.92;;;;;;;;;;5006254;28;20578;-79
2024/03/08 07:12:06;;;;;;;73.95;32.58;;;;;;;;;;5009697;28;20061;-79
2024/03/08 07:14:34;;;;;;;69.30;34.38;;;;;;;;;;5008333;28;20104;-80
2024/03/08 07:17:01;;;;;;;72.78;34.38;;;;;;;;;;5002752;28;20043;-79
2024/03/08 07:19:31;;;;;;;75.88;36.42;;;;;;;;;;5002321;28;20492;-80
2024/03/08 07:21:58;;;;;;;72.90;35.75;;;;;;;;;;4998947;28;20046;-79
2024/03/08 07:27:11;;;;;;;69.75;35.40;;;;;;;;;;5000102;28;20054;-79
2024/03/08 07:29:39;;;;;;;87.43;39.83;;;;;;;;;;5006293;28;20050;-80
2024/03/08 07:32:40;;;;;;;93.65;43.60;;;;;;;;;;5003925;28;20054;-80
2024/03/08 07:35:01;;;;;;;115.47;49.92;;;;;;;;;;5000978;28;20105;-81
2024/03/08 07:37:29;;;;;;;120.00;50.45;;;;;;;;;;4997240;28;20058;-80
2024/03/08 07:39:58;;;;;;;111.22;50.08;;;;;;;;;;5008141;28;20050;-81
2024/03/08 07:42:25;;;;;;;107.53;52.53;;;;;;;;;;5008756;28;20213;-81
2024/03/08 07:44:52;;;;;;;92.93;48.85;;;;;;;;;;5000001;28;20065;-81
2024/03/08 07:47:20;;;;;;;84.55;46.03;;;;;;;;;;5008473;28;20072;-82
2024/03/08 07:49:51;;;;;;;72.20;39.70;;;;;;;;;;5004279;28;20500;-82
2024/03/08 07:52:18;;;;;;;60.33;35.22;;;;;;;;;;4998902;28;20054;-82
2024/03/08 07:54:45;;;;;;;51.95;30.23;;;;;;;;;;5006548;28;20466;-82
2024/03/08 07:57:13;;;;;;;68.40;30.15;;;;;;;;;;5005183;28;20058;-82
2024/03/08 07:59:40;;;;;;;54.63;30.23;;;;;;;;;;5006000;28;20109;-82
2024/03/08 08:02:07;;;;;;;49.78;27.08;;;;;;;;;;5004355;28;20046;-82
2024/03/08 08:04:35;;;;;;;51.78;27.80;;;;;;;;;;5005160;28;20042;-82
2024/03/08 08:07:02;;;;;;;53.33;27.23;;;;;;;;;;5003752;28;20050;-82
2024/03/08 08:11:57;;;;;;;50.30;28.67;;;;;;;;;;5014585;28;20050;-82
2024/03/08 08:14:24;;;;;;;50.58;29.50;;;;;;;;;;5016509;28;20467;-81
2024/03/08 08:16:52;;;;;;;51.88;29.70;;;;;;;;;;5014925;28;20140;-81
2024/03/08 08:19:20;;;;;;;50.03;29.98;;;;;;;;;;5015989;28;20046;-81
2024/03/08 08:21:48;;;;;;;49.47;28.80;;;;;;;;;;5014704;28;20041;-81
2024/03/08 08:24:15;;;;;;;54.78;29.98;;;;;;;;;;5014657;28;20104;-81
2024/03/08 08:26:44;;;;;;;48.15;29.58;;;;;;;;;;5014514;28;20050;-81
2024/03/08 08:29:11;;;;;;;59.60;31.48;;;;;;;;;;5015888;28;20053;-81
2024/03/08 08:31:39;;;;;;;48.67;29.10;;;;;;;;;;5016104;28;20053;-82
2024/03/08 08:34:06;;;;;;;41.60;26.15;;;;;;;;;;5014359;28;20050;-82
2024/03/08 08:36:34;;;;;;;37.13;23.40;;;;;;;;;;5024676;28;20045;-82
2024/03/08 08:39:03;;;;;;;30.42;19.52;;;;;;;;;;5017553;28;20062;-83
2024/03/08 08:41:30;;;;;;;30.58;20.10;;;;;;;;;;5024510;28;20136;-83
2024/03/08 08:43:58;;;;;;;30.35;19.73;;;;;;;;;;5008037;28;20054;-83
2024/03/08 08:46:42;;;;;;;37.23;21.23;;;;;;;;;;5016279;28;20056;-82
2024/03/08 08:49:14;;;;;;;35.05;21.45;;;;;;;;;;5015253;28;20493;-82
2024/03/08 08:51:42;;;;;;;35.20;22.40;;;;;;;;;;5015471;28;20073;-82
2024/03/08 08:54:09;;;;;;;32.55;21.33;;;;;;;;;;5013419;28;20500;-82
2024/03/08 08:56:39;;;;;;;36.72;22.48;;;;;;;;;;5013675;28;20124;-82
2024/03/08 08:59:07;;;;;;;35.08;21.90;;;;;;;;;;5014544;28;20054;-82
2024/03/08 09:01:34;;;;;;;35.72;21.90;;;;;;;;;;5013767;28;20054;-81
2024/03/08 09:04:02;;;;;;;41.15;21.00;;;;;;;;;;5014123;28;20058;-83
2024/03/08 09:06:30;;;;;;;33.10;20.67;;;;;;;;;;5023004;28;20496;-82
2024/03/08 09:08:57;;;;;;;28.30;20.08;;;;;;;;;;5013648;28;20046;-82
2024/03/08 09:11:29;;;;;;;30.98;19.83;;;;;;;;;;5014724;28;20046;-82
2024/03/08 09:13:56;;;;;;;28.98;19.48;;;;;;;;;;5014562;28;20049;-82
2024/03/08 09:16:24;;;;;;;29.65;18.50;;;;;;;;;;5014664;28;20049;-82
2024/03/08 09:18:52;;;;;;;26.02;18.63;;;;;;;;;;5013518;28;20145;-83
2024/03/08 09:21:19;;;;;;;26.75;18.67;;;;;;;;;;5014674;28;20050;-82
2024/03/08 09:23:49;;;;;;;29.63;18.92;;;;;;;;;;5013216;28;20132;-82
2024/03/08 09:26:16;;;;;;;24.10;17.40;;;;;;;;;;5013849;28;20050;-83
2024/03/08 09:28:54;;;;;;;33.80;18.67;;;;;;;;;;5014390;28;20045;-82
2024/03/08 09:31:22;;;;;;;32.03;18.95;;;;;;;;;;5014417;28;20444;-83
2024/03/08 09:33:50;;;;;;;33.33;17.58;;;;;;;;;;5014158;28;20125;-82
2024/03/08 09:36:18;;;;;;;31.13;18.42;;;;;;;;;;5013491;28;20463;-82
2024/03/08 09:38:45;;;;;;;28.02;18.70;;;;;;;;;;5013225;28;20050;-82
2024/03/08 09:41:12;;;;;;;32.80;19.17;;;;;;;;;;5013648;28;20045;-82
2024/03/08 09:43:40;;;;;;;37.65;19.05;;;;;;;;;;5021952;28;20046;-82
2024/03/08 09:46:08;;;;;;;22.67;17.45;;;;;;;;;;5013493;28;20054;-83
2024/03/08 09:48:35;;;;;;;28.83;16.38;;;;;;;;;;5013741;28;20053;-83
2024/03/08 09:51:04;;;;;;;21.33;15.98;;;;;;;;;;5013720;28;20161;-83
2024/03/08 09:53:31;;;;;;;23.92;15.88;;;;;;;;;;5013710;28;20046;-82
2024/03/08 09:55:59;;;;;;;23.42;16.33;;;;;;;;;;5013652;28;20046;-82
2024/03/08 09:58:42;;;;;;;22.30;16.52;;;;;;;;;;5021485;28;20052;-82
2024/03/08 10:01:09;;;;;;;23.65;16.30;;;;;;;;;;5007452;28;20045;-82
2024/03/08 10:03:36;;;;;;;23.25;15.77;;;;;;;;;;5014950;28;20057;-83
2024/03/08 10:06:05;;;;;;;24.60;16.00;;;;;;;;;;5013678;28;20053;-83
2024/03/08 10:08:33;;;;;;;21.55;15.90;;;;;;;;;;5016307;28;20054;-83
2024/03/08 10:11:00;;;;;;;21.52;16.40;;;;;;;;;;5015951;28;20057;-83
2024/03/08 10:13:28;;;;;;;25.73;16.20;;;;;;;;;;5015636;28;20046;-83
2024/03/08 10:15:55;;;;;;;22.20;16.02;;;;;;;;;;5015010;28;20105;-83
2024/03/08 10:18:22;;;;;;;23.02;16.13;;;;;;;;;;5016087;28;20058;-83
2024/03/08 10:21:07;;;;;;;21.77;15.63;;;;;;;;;;5015819;28;20042;-83
2024/03/08 10:23:34;;;;;;;20.85;15.00;;;;;;;;;;5013512;28;20081;-82
2024/03/08 10:26:14;;;;;;;22.17;16.27;;;;;;;;;;5012204;28;20085;-82
2024/03/08 10:28:45;;;;;;;23.90;16.90;;;;;;;;;;5013572;28;20072;-82
2024/03/08 10:31:13;;;;;;;23.20;15.82;;;;;;;;;;5013899;28;20056;-82
2024/03/08 10:33:44;;;;;;;25.20;16.05;;;;;;;;;;5012411;28;20101;-82
2024/03/08 10:36:13;;;;;;;21.65;16.33;;;;;;;;;;5013605;28;20493;-83
2024/03/08 10:38:41;;;;;;;22.13;16.75;;;;;;;;;;5012279;28;20061;-82
2024/03/08 10:41:09;;;;;;;22.55;16.88;;;;;;;;;;5013141;28;20057;-83
2024/03/08 10:43:47;;;;;;;22.33;15.88;;;;;;;;;;5012028;28;20129;-82
2024/03/08 10:46:22;;;;;;;23.33;18.17;;;;;;;;;;5012661;28;20058;-83
2024/03/08 10:48:50;;;;;;;38.60;29.58;;;;;;;;;;5012245;28;20050;-83
2024/03/08 10:51:18;;;;;;;22.27;16.95;;;;;;;;;;5013185;28;20054;-83
2024/03/08 10:53:46;;;;;;;31.42;20.35;;;;;;;;;;5014787;28;20054;-83
2024/03/08 10:56:14;;;;;;;43.70;29.05;;;;;;;;;;5014123;28;20066;-83
2024/03/08 10:58:44;;;;;;;28.45;20.55;;;;;;;;;;5014137;28;20050;-83
2024/03/08 11:01:11;;;;;;;38.60;24.80;;;;;;;;;;5015899;28;20417;-83
2024/03/08 11:03:43;;;;;;;52.70;34.55;;;;;;;;;;5015483;28;20050;-84
2024/03/08 11:06:31;;;;;;;68.82;50.03;;;;;;;;;;5014272;28;20141;-83
2024/03/08 11:08:59;;;;;;;31.27;23.02;;;;;;;;;;5014922;28;20050;-83
2024/03/08 11:11:30;;;;;;;78.93;59.45;;;;;;;;;;5013404;28;20050;-83
2024/03/08 11:14:02;;;;;;;82.57;61.00;;;;;;;;;;5016904;28;20057;-83
2024/03/08 11:16:30;;;;;;;33.78;24.30;;;;;;;;;;5018176;28;20505;-83
2024/03/08 11:19:06;;;;;;;30.70;22.83;;;;;;;;;;5014873;28;20053;-83
2024/03/08 11:21:33;;;;;;;31.67;23.50;;;;;;;;;;5013022;28;20050;-83
2024/03/08 11:24:01;;;;;;;44.08;34.15;;;;;;;;;;5013434;28;20501;-81
2024/03/08 11:26:35;;;;;;;21.38;15.88;;;;;;;;;;5021739;28;20054;-84
2024/03/08 11:29:21;;;;;;;22.83;16.55;;;;;;;;;;5014504;28;20053;-82
2024/03/08 11:31:48;;;;;;;18.48;14.00;;;;;;;;;;5013355;28;20061;-83
2024/03/08 11:34:16;;;;;;;18.45;14.55;;;;;;;;;;5013133;28;20479;-81
2024/03/08 11:36:43;;;;;;;90.38;62.13;;;;;;;;;;5013480;28;20078;-82
2024/03/08 11:39:14;;;;;;;21.77;15.32;;;;;;;;;;5013231;28;20046;-82
2024/03/08 11:41:41;;;;;;;34.65;26.73;;;;;;;;;;5016532;28;20128;-82
2024/03/08 11:44:11;;;;;;;16.38;13.45;;;;;;;;;;5013685;28;20049;-84
2024/03/08 11:46:43;;;;;;;106.40;85.65;;;;;;;;;;5016996;28;20566;-84
2024/03/08 11:49:11;;;;;;;21.80;15.85;;;;;;;;;;5017540;28;20061;-84
2024/03/08 11:51:39;;;;;;;15.60;13.23;;;;;;;;;;5016924;28;20402;-84
2024/03/08 11:54:07;;;;;;;19.67;13.95;;;;;;;;;;5017872;28;20050;-83
2024/03/08 11:56:34;;;;;;;17.45;12.95;;;;;;;;;;5013401;28;20178;-82
2024/03/08 11:59:01;;;;;;;29.85;23.35;;;;;;;;;;5013391;28;20050;-83
2024/03/08 12:01:29;;;;;;;19.10;14.10;;;;;;;;;;5014800;28;20046;-83
2024/03/08 12:03:58;;;;;;;18.25;14.90;;;;;;;;;;5015705;28;20046;-83
2024/03/08 12:06:27;;;;;;;21.75;16.02;;;;;;;;;;5016722;28;20116;-84
2024/03/08 12:08:54;;;;;;;20.48;13.98;;;;;;;;;;5017322;28;20575;-84
2024/03/08 12:11:23;;;;;;;15.98;12.60;;;;;;;;;;4980995;28;1036554;-84
2024/03/08 12:13:51;;;;;;;15.65;13.15;;;;;;;;;;5016837;28;20417;-83
2024/03/08 12:16:21;;;;;;;16.92;13.00;;;;;;;;;;5018293;28;20073;-84
2024/03/08 12:18:49;;;;;;;17.67;12.70;;;;;;;;;;5019946;28;20046;-84
2024/03/08 12:21:20;;;;;;;16.08;13.25;;;;;;;;;;5019788;28;20417;-83
2024/03/08 12:23:50;;;;;;;17.00;12.38;;;;;;;;;;5019506;28;20459;-83
2024/03/08 12:26:25;;;;;;;15.65;12.80;;;;;;;;;;5019761;28;20129;-83
2024/03/08 12:28:53;;;;;;;14.90;12.40;;;;;;;;;;5018762;28;20058;-84
2024/03/08 12:31:21;;;;;;;18.40;13.52;;;;;;;;;;5018201;28;20058;-84
2024/03/08 12:33:52;;;;;;;16.15;12.73;;;;;;;;;;5017728;28;20046;-83
2024/03/08 12:36:23;;;;;;;15.43;12.15;;;;;;;;;;5018315;28;20056;-83
2024/03/08 12:38:51;;;;;;;17.10;12.90;;;;;;;;;;5018796;28;20173;-83
2024/03/08 12:41:20;;;;;;;17.70;12.68;;;;;;;;;;5020203;28;20046;-83
2024/03/08 12:43:48;;;;;;;14.38;11.95;;;;;;;;;;5018125;28;20104;-83
2024/03/08 12:46:16;;;;;;;18.02;11.93;;;;;;;;;;5016980;28;20058;-83
2024/03/08 12:48:46;;;;;;;14.63;11.05;;;;;;;;;;5014312;28;20053;-82
2024/03/08 12:51:15;;;;;;;16.15;12.07;;;;;;;;;;5014241;28;20063;-81
2024/03/08 12:53:46;;;;;;;17.33;12.85;;;;;;;;;;5013890;28;20129;-83
2024/03/08 12:56:15;;;;;;;14.30;11.75;;;;;;;;;;5014004;28;20050;-82
2024/03/08 12:58:42;;;;;;;15.98;12.07;;;;;;;;;;5014473;28;20064;-83
2024/03/08 13:01:10;;;;;;;16.10;12.63;;;;;;;;;;5014862;28;20125;-83
2024/03/08 13:03:37;;;;;;;18.55;12.50;;;;;;;;;;5014671;28;20053;-82
2024/03/08 13:06:08;;;;;;;16.23;12.13;;;;;;;;;;5013496;28;20046;-83
2024/03/08 13:08:39;;;;;;;14.35;11.98;;;;;;;;;;5021914;28;20511;-82
2024/03/08 13:11:13;;;;;;;17.73;12.05;;;;;;;;;;5015920;28;20054;-84
2024/03/08 13:13:41;;;;;;;15.50;12.25;;;;;;;;;;5019656;28;20046;-83
2024/03/08 13:16:09;;;;;;;16.67;11.75;;;;;;;;;;5018530;28;20046;-83
2024/03/08 13:18:36;;;;;;;16.50;12.55;;;;;;;;;;5019855;28;20515;-82
2024/03/08 13:21:07;;;;;;;16.75;12.02;;;;;;;;;;5017115;28;20053;-83
2024/03/08 13:23:41;;;;;;;15.38;12.18;;;;;;;;;;5016996;28;20104;-83
2024/03/08 13:26:10;;;;;;;25.45;13.10;;;;;;;;;;5015811;28;20045;-82
2024/03/08 13:28:37;;;;;;;15.50;12.07;;;;;;;;;;5012969;28;20072;-83
2024/03/08 13:31:10;;;;;;;14.65;11.52;;;;;;;;;;5012817;28;20050;-82
2024/03/08 13:33:39;;;;;;;19.02;11.55;;;;;;;;;;5012601;28;20049;-82
2024/03/08 13:36:14;;;;;;;21.80;12.45;;;;;;;;;;5012919;28;20135;-82
2024/03/08 13:38:45;;;;;;;19.20;12.25;;;;;;;;;;5012714;28;20045;-82
2024/03/08 13:41:14;;;;;;;14.40;10.95;;;;;;;;;;5013073;28;20073;-82
2024/03/08 13:43:42;;;;;;;14.25;10.38;;;;;;;;;;5013716;28;20046;-82
2024/03/08 13:46:12;;;;;;;12.10;9.60;;;;;;;;;;5012814;28;20052;-82
2024/03/08 13:48:41;;;;;;;15.77;10.25;;;;;;;;;;5021785;28;20046;-82
2024/03/08 13:51:10;;;;;;;12.63;9.43;;;;;;;;;;5013700;28;20493;-83
2024/03/08 13:53:37;;;;;;;12.30;9.50;;;;;;;;;;5012613;28;20057;-84
2024/03/08 13:56:10;;;;;;;11.63;9.02;;;;;;;;;;5012608;28;20132;-83
2024/03/08 13:58:40;;;;;;;12.63;9.40;;;;;;;;;;5014070;28;20100;-82
2024/03/08 14:01:11;;;;;;;12.15;9.27;;;;;;;;;;5014204;28;20364;-82
2024/03/08 14:03:42;;;;;;;13.80;9.80;;;;;;;;;;5013743;28;20046;-82
2024/03/08 14:06:10;;;;;;;12.73;10.25;;;;;;;;;;5012816;28;20050;-82
2024/03/08 14:08:53;;;;;;;13.07;10.18;;;;;;;;;;5010914;28;20057;-83
2024/03/08 14:11:20;;;;;;;13.85;10.43;;;;;;;;;;5012564;28;20409;-83
2024/03/08 14:13:47;;;;;;;16.08;10.05;;;;;;;;;;5013531;28;20046;-82
2024/03/08 14:16:15;;;;;;;12.88;9.57;;;;;;;;;;5012808;28;20046;-83
2024/03/08 14:18:42;;;;;;;13.27;10.13;;;;;;;;;;5012684;28;20124;-82
2024/03/08 14:21:10;;;;;;;11.82;8.70;;;;;;;;;;5013638;28;20073;-82
2024/03/08 14:23:38;;;;;;;13.48;9.82;;;;;;;;;;5036152;22;20111;-83
2024/03/08 14:26:07;;;;;;;12.90;9.25;;;;;;;;;;5027723;28;20096;-85
2024/03/08 14:28:35;;;;;;;12.52;8.82;;;;;;;;;;5028664;28;20100;-85
2024/03/08 14:31:03;;;;;;;12.38;9.63;;;;;;;;;;5035756;28;20057;-83
2024/03/08 14:33:33;;;;;;;12.60;10.05;;;;;;;;;;5028092;28;20049;-82